createdAt,value
2022-09-26T00:03:49.181Z,10.23
2022-09-26T00:09:21.263Z,10.19
2022-09-26T00:15:36.481Z,10.19
2022-09-26T00:21:54.635Z,10.16
2022-09-26T00:27:10.878Z,10.11
2022-09-26T00:33:34.459Z,10.09
2022-09-26T00:39:49.066Z,10.09
2022-09-26T00:45:39.818Z,10.09
2022-09-26T00:52:01.491Z,10.09
2022-09-26T00:58:53.622Z,10.11
2022-09-26T01:04:16.817Z,10.14
2022-09-26T01:10:16.295Z,10.15
2022-09-26T01:16:03.661Z,10.13
2022-09-26T01:22:41.877Z,10.13
2022-09-26T01:29:13.655Z,10.16
2022-09-26T01:35:54.279Z,10.22
2022-09-26T01:41:49.571Z,10.28
2022-09-26T01:47:46.256Z,10.34
2022-09-26T01:54:03.746Z,10.39
2022-09-26T02:00:03.086Z,10.46
2022-09-26T02:05:47.275Z,10.51
2022-09-26T02:11:22.149Z,10.56
2022-09-26T02:17:38.512Z,10.59
2022-09-26T02:23:03.104Z,10.63
2022-09-26T02:28:47.094Z,10.65
2022-09-26T02:34:08.127Z,10.66
2022-09-26T02:39:38.508Z,10.67
2022-09-26T02:45:26.058Z,10.66
2022-09-26T02:52:13.900Z,10.62
2022-09-26T02:58:25.388Z,10.58
2022-09-26T03:04:27.473Z,10.56
2022-09-26T03:10:16.849Z,10.55
2022-09-26T03:16:04.838Z,10.56
2022-09-26T03:21:55.349Z,10.58
2022-09-26T03:27:46.440Z,10.59
2022-09-26T03:34:00.711Z,10.64
2022-09-26T03:40:24.065Z,10.68
2022-09-26T03:47:04.669Z,10.72
2022-09-26T03:52:53.030Z,10.75
2022-09-26T03:58:57.032Z,10.80
2022-09-26T04:05:18.311Z,10.86
2022-09-26T04:10:57.053Z,10.90
2022-09-26T04:16:21.326Z,10.94
2022-09-26T04:22:04.739Z,10.98
2022-09-26T04:28:25.342Z,11.02
2022-09-26T04:34:58.419Z,11.05
2022-09-26T04:40:01.724Z,11.06
2022-09-26T04:46:08.525Z,11.06
2022-09-26T04:52:20.680Z,11.05
2022-09-26T04:58:10.867Z,11.07
2022-09-26T05:03:44.400Z,11.12
2022-09-26T05:09:55.676Z,11.18
2022-09-26T05:16:10.440Z,11.24
2022-09-26T05:22:25.701Z,11.32
2022-09-26T05:28:37.492Z,11.41
2022-09-26T05:34:53.998Z,11.51
2022-09-26T05:41:36.546Z,11.65
2022-09-26T05:47:54.933Z,11.76
2022-09-26T05:54:27.622Z,11.87
2022-09-26T06:00:57.965Z,11.96
2022-09-26T06:07:49.545Z,12.04
2022-09-26T06:13:38.131Z,12.11
2022-09-26T06:19:08.575Z,12.18
2022-09-26T06:25:34.488Z,12.29
2022-09-26T06:31:35.522Z,12.43
2022-09-26T06:37:20.280Z,12.50
2022-09-26T06:42:46.898Z,12.54
2022-09-26T06:49:12.537Z,12.57
2022-09-26T06:55:25.667Z,12.55
2022-09-26T07:00:33.057Z,12.59
2022-09-26T07:06:42.305Z,12.70
2022-09-26T07:12:16.702Z,12.81
2022-09-26T07:18:01.869Z,12.89
2022-09-26T07:23:27.931Z,12.99
2022-09-26T07:29:13.278Z,13.08
2022-09-26T07:34:56.514Z,13.30
2022-09-26T07:40:21.799Z,13.54
2022-09-26T07:45:43.064Z,13.76
2022-09-26T07:51:33.810Z,13.87
2022-09-26T07:57:00.189Z,14.01
2022-09-26T08:02:40.535Z,14.07
2022-09-26T08:07:42.916Z,14.09
2022-09-26T08:13:07.516Z,14.17
2022-09-26T08:18:52.161Z,14.32
2022-09-26T08:24:20.065Z,14.47
2022-09-26T08:30:04.916Z,14.59
2022-09-26T08:35:21.724Z,14.87
2022-09-26T08:41:04.840Z,15.02
2022-09-26T08:47:16.607Z,15.33
2022-09-26T08:53:33.107Z,15.53
2022-09-26T08:58:43.166Z,15.90
2022-09-26T09:05:04.092Z,16.25
2022-09-26T09:10:58.056Z,16.67
2022-09-26T09:17:25.886Z,17.10
2022-09-26T09:23:48.653Z,17.22
2022-09-26T09:30:36.511Z,16.97
2022-09-26T09:37:28.193Z,17.10
2022-09-26T09:44:08.310Z,17.52
2022-09-26T09:50:38.836Z,17.74
2022-09-26T09:57:50.894Z,17.85
2022-09-26T10:04:06.883Z,17.67
2022-09-26T10:09:46.248Z,17.37
2022-09-26T10:16:01.684Z,17.44
2022-09-26T10:22:37.229Z,17.63
2022-09-26T10:29:15.557Z,17.88
2022-09-26T10:34:29.877Z,17.92
2022-09-26T10:40:10.541Z,17.93
2022-09-26T10:45:55.235Z,18.06
2022-09-26T10:51:50.944Z,18.40
2022-09-26T10:58:13.837Z,18.50
2022-09-26T11:04:05.477Z,18.42
2022-09-26T11:09:52.592Z,18.61
2022-09-26T11:15:48.447Z,18.83
2022-09-26T11:21:36.295Z,19.14
2022-09-26T11:27:43.961Z,19.38
2022-09-26T11:33:12.510Z,19.24
2022-09-26T11:40:08.563Z,18.67
2022-09-26T11:46:05.422Z,18.15
2022-09-26T11:52:49.172Z,17.85
2022-09-26T11:58:45.689Z,17.82
2022-09-26T12:04:55.579Z,17.87
2022-09-26T12:10:46.950Z,18.16
2022-09-26T12:17:08.733Z,18.30
2022-09-26T12:23:10.304Z,18.18
2022-09-26T12:28:41.337Z,18.06
2022-09-26T12:34:15.349Z,18.11
2022-09-26T12:40:03.795Z,18.34
2022-09-26T12:45:42.311Z,18.78
2022-09-26T12:52:17.848Z,19.04
2022-09-26T12:58:42.622Z,19.17
2022-09-26T13:04:38.148Z,19.59
2022-09-26T13:10:28.127Z,19.50
2022-09-26T13:17:00.017Z,19.61
2022-09-26T13:23:32.117Z,19.58
2022-09-26T13:30:07.219Z,19.04
2022-09-26T13:36:28.747Z,18.64
2022-09-26T13:42:46.484Z,18.29
2022-09-26T13:48:57.726Z,18.01
2022-09-26T13:55:11.516Z,17.82
2022-09-26T14:01:13.540Z,17.70
2022-09-26T14:07:49.539Z,17.17
2022-09-26T14:13:41.363Z,16.63
2022-09-26T14:19:35.868Z,16.27
2022-09-26T14:25:04.660Z,15.85
2022-09-26T14:30:33.692Z,15.51
2022-09-26T14:36:16.014Z,15.37
2022-09-26T14:41:33.990Z,15.20
2022-09-26T14:46:57.947Z,15.04
2022-09-26T14:52:45.409Z,14.83
2022-09-26T14:58:27.278Z,14.67
2022-09-26T15:03:43.785Z,14.49
2022-09-26T15:09:17.808Z,14.40
2022-09-26T15:15:19.526Z,14.32
2022-09-26T15:21:06.850Z,14.25
2022-09-26T15:26:53.151Z,14.24
2022-09-26T15:33:03.672Z,14.24
2022-09-26T15:38:25.552Z,14.31
2022-09-26T15:44:42.531Z,14.43
2022-09-26T15:50:58.995Z,14.50
2022-09-26T15:57:18.311Z,14.43
2022-09-26T16:02:43.899Z,14.37
2022-09-26T16:09:00.565Z,14.33
2022-09-26T16:15:15.495Z,14.18
2022-09-26T16:21:10.465Z,14.05
2022-09-26T16:26:41.122Z,13.90
2022-09-26T16:32:15.645Z,13.73
2022-09-26T16:38:24.571Z,13.48
2022-09-26T16:44:31.911Z,13.24
2022-09-26T16:51:08.545Z,12.98
2022-09-26T16:56:52.134Z,12.75
2022-09-26T17:02:14.874Z,12.57
2022-09-26T17:07:35.530Z,12.41
2022-09-26T17:13:29.902Z,12.26
2022-09-26T17:20:12.477Z,12.11
2022-09-26T17:26:38.487Z,12.03
2022-09-26T17:32:57.986Z,11.94
2022-09-26T17:39:02.717Z,11.81
2022-09-26T17:44:20.028Z,11.69
2022-09-26T17:51:00.560Z,11.53
2022-09-26T17:57:40.969Z,11.35
2022-09-26T18:04:27.046Z,11.20
2022-09-26T18:11:04.226Z,11.07
2022-09-26T18:17:28.599Z,10.95
2022-09-26T18:23:21.461Z,10.84
2022-09-26T18:28:26.293Z,10.74
2022-09-26T18:33:57.213Z,10.66
2022-09-26T18:39:47.084Z,10.57
2022-09-26T18:45:22.830Z,10.46
2022-09-26T18:51:03.479Z,10.38
2022-09-26T18:57:13.958Z,10.30
2022-09-26T19:03:04.541Z,10.24
2022-09-26T19:09:29.115Z,10.17
2022-09-26T19:15:36.199Z,10.07
2022-09-26T19:21:28.790Z,9.92
2022-09-26T19:27:37.902Z,9.84
2022-09-26T19:33:25.103Z,9.78
2022-09-26T19:39:55.767Z,9.73
2022-09-26T19:46:21.330Z,9.67
2022-09-26T19:53:19.886Z,9.62
2022-09-26T19:59:32.642Z,9.57
2022-09-26T20:05:52.310Z,9.53
2022-09-26T20:12:12.506Z,9.48
2022-09-26T20:18:12.947Z,9.44
2022-09-26T20:24:07.515Z,9.38
2022-09-26T20:30:09.944Z,9.33
2022-09-26T20:37:02.783Z,9.31
2022-09-26T20:43:37.299Z,9.26
2022-09-26T20:50:33.294Z,9.21
2022-09-26T20:56:55.526Z,9.14
2022-09-26T21:03:20.792Z,9.07
2022-09-26T21:09:24.000Z,9.02
2022-09-26T21:15:07.156Z,8.96
2022-09-26T21:21:05.616Z,8.94
2022-09-26T21:28:07.961Z,8.93
2022-09-26T21:34:29.231Z,8.90
2022-09-26T21:40:32.174Z,8.85
2022-09-26T21:46:34.786Z,8.83
2022-09-26T21:52:31.148Z,8.79
2022-09-26T21:58:42.656Z,8.75
2022-09-26T22:04:37.506Z,8.72
2022-09-26T22:10:09.563Z,8.69
2022-09-26T22:16:07.848Z,8.67
2022-09-26T22:22:18.445Z,8.66
2022-09-26T22:28:11.994Z,8.66
2022-09-26T22:33:59.688Z,8.68
2022-09-26T22:40:48.427Z,8.69
2022-09-26T22:47:09.392Z,8.69
2022-09-26T22:53:34.983Z,8.65
2022-09-26T22:59:39.677Z,8.61
2022-09-26T23:05:46.794Z,8.60
2022-09-26T23:12:40.354Z,8.57
2022-09-26T23:19:20.282Z,8.53
2022-09-26T23:26:26.533Z,8.48
2022-09-26T23:32:35.963Z,8.42
2022-09-26T23:38:57.525Z,8.35
2022-09-26T23:45:05.798Z,8.30
2022-09-26T23:51:23.508Z,8.25
2022-09-26T23:57:28.084Z,8.21
